Weather at Glendambo Airport

Public forecast

Using degrees Celsius for public forecast. Weather courtesy of forecast.io.

Closest aviation weather report (METAR) to Glendambo Airport

Closest report is Woomera Airfield, 54.6 nm (101.2 km) ESE. Retrieved 2021/06/15 02:31 UTC (0 seconds ago):

YPWR 150231Z AUTO 31012KT 9999 // SCT015 SCT019 BKN043 18/11 Q1010

Closest aviation forecast (TAF) to Glendambo Airport

Closest forecast is Woomera Airfield, 54.6 nm (101.2 km) ESE. Retrieved 2021-06-15 00:00 UTC (2 hours ago):

TAF YPWR 142333Z 1500/1518 33009KT 9999 FEW005 BKN050 FM150100 30015KT 9999 SCT050 FM150500 30018KT 9999 -SHRA BKN050 FM150700 27018G28KT 9999 -SHRA BKN050 FM150900 29012KT CAVOK INTER 1506/1508 30025G35KT 4000 SHRA BKN020